SWA824 KSLC-KDEN
Flight info
| Callsign | SWA824 |
|---|---|
| Flight time | 0h 59m |
| Altitude | 31000 |
| Route | RUGGD3 PERTY KAMPR LONGZ4 |
| Aircraft | B739/M-SDE2E3FGHIRWXY/LB1 |
Departure
| Time | 2026-05-08 04:28 |
|---|---|
| Airport | Salt Lake City International Airport (KSLC) |
Arrival
| Time | 2026-05-08 05:28 |
|---|---|
| Airport | Denver International Airport (KDEN) |
| Time | Latitude | Longitude | Altitude | Speed | Heading |
|---|---|---|---|---|---|
| 2026-05-08 04:07 | 40.78843 | -111.98480 | 4233 ft | 0 kts | 10° |
| 2026-05-08 04:16 | 40.78842 | -111.98480 | 4233 ft | 2 kts | 10° |
| 2026-05-08 04:16 | 40.78822 | -111.98484 | 4231 ft | 3 kts | 9° |
| 2026-05-08 04:16 | 40.78802 | -111.98489 | 4231 ft | 2 kts | 5° |
| 2026-05-08 04:17 | 40.78786 | -111.98482 | 4231 ft | 2 kts | 322° |
| 2026-05-08 04:17 | 40.78779 | -111.98470 | 4232 ft | 3 kts | 285° |
| 2026-05-08 04:17 | 40.78777 | -111.98451 | 4231 ft | 0 kts | 262° |
| 2026-05-08 04:24 | 40.78776 | -111.98461 | 4233 ft | 7 kts | 262° |
| 2026-05-08 04:24 | 40.78730 | -111.98595 | 4230 ft | 25 kts | 242° |
| 2026-05-08 04:24 | 40.78680 | -111.98875 | 4230 ft | 36 kts | 265° |
| 2026-05-08 04:25 | 40.78658 | -111.99198 | 4232 ft | 34 kts | 265° |
| 2026-05-08 04:25 | 40.78625 | -111.99435 | 4230 ft | 16 kts | 222° |
| 2026-05-08 04:25 | 40.78506 | -111.99447 | 4230 ft | 22 kts | 178° |
| 2026-05-08 04:25 | 40.78332 | -111.99425 | 4227 ft | 29 kts | 175° |
| 2026-05-08 04:26 | 40.78109 | -111.99410 | 4228 ft | 34 kts | 184° |
| 2026-05-08 04:26 | 40.77859 | -111.99427 | 4254 ft | 39 kts | 175° |
| 2026-05-08 04:26 | 40.77618 | -111.99397 | 4261 ft | 27 kts | 174° |
| 2026-05-08 04:26 | 40.77545 | -111.99405 | 4260 ft | 0 kts | 210° |
| 2026-05-08 04:27 | 40.77545 | -111.99406 | 4260 ft | 2 kts | 211° |
| 2026-05-08 04:27 | 40.77512 | -111.99490 | 4261 ft | 16 kts | 266° |
| 2026-05-08 04:27 | 40.77570 | -111.99559 | 4261 ft | 14 kts | 350° |
| 2026-05-08 04:27 | 40.77593 | -111.99562 | 4261 ft | 0 kts | 355° |
| 2026-05-08 04:28 | 40.77697 | -111.99573 | 4259 ft | 49 kts | 355° |
| 2026-05-08 04:28 | 40.78315 | -111.99643 | 4227 ft | 127 kts | 355° |
| 2026-05-08 04:28 | 40.79415 | -111.99756 | 4250 ft | 188 kts | 357° |
| 2026-05-08 04:28 | 40.80776 | -111.99918 | 5012 ft | 195 kts | 353° |
| 2026-05-08 04:29 | 40.82061 | -112.00151 | 6161 ft | 191 kts | 352° |
| 2026-05-08 04:29 | 40.83415 | -112.00405 | 6964 ft | 203 kts | 351° |
| 2026-05-08 04:29 | 40.84839 | -112.00659 | 7602 ft | 209 kts | 351° |
| 2026-05-08 04:29 | 40.86332 | -112.00900 | 8122 ft | 229 kts | 351° |
| 2026-05-08 04:30 | 40.88023 | -112.01175 | 8376 ft | 259 kts | 351° |
| 2026-05-08 04:30 | 40.89862 | -112.01476 | 8941 ft | 275 kts | 351° |
| 2026-05-08 04:30 | 40.91871 | -112.01807 | 8958 ft | 300 kts | 351° |
| 2026-05-08 04:30 | 40.93926 | -112.02144 | 8944 ft | 292 kts | 351° |
| 2026-05-08 04:31 | 40.95883 | -112.02459 | 8974 ft | 281 kts | 351° |
| 2026-05-08 04:31 | 40.97778 | -112.02759 | 9061 ft | 271 kts | 351° |
| 2026-05-08 04:31 | 40.99642 | -112.03052 | 9057 ft | 269 kts | 351° |
| 2026-05-08 04:31 | 41.01530 | -112.03348 | 9158 ft | 284 kts | 351° |
| 2026-05-08 04:32 | 41.03586 | -112.03675 | 9443 ft | 308 kts | 351° |
| 2026-05-08 04:32 | 41.05757 | -112.04019 | 10092 ft | 317 kts | 351° |
| 2026-05-08 04:32 | 41.07961 | -112.04298 | 10907 ft | 321 kts | 357° |
| 2026-05-08 04:32 | 41.10158 | -112.03562 | 11676 ft | 335 kts | 25° |
| 2026-05-08 04:33 | 41.11978 | -112.01555 | 12424 ft | 349 kts | 46° |
| 2026-05-08 04:33 | 41.13254 | -111.98746 | 13120 ft | 363 kts | 65° |
| 2026-05-08 04:33 | 41.13825 | -111.95486 | 13779 ft | 374 kts | 85° |
| 2026-05-08 04:33 | 41.13606 | -111.92017 | 14437 ft | 381 kts | 103° |
| 2026-05-08 04:34 | 41.12642 | -111.88743 | 15178 ft | 384 kts | 117° |
| 2026-05-08 04:34 | 41.11325 | -111.85646 | 15910 ft | 388 kts | 121° |
| 2026-05-08 04:34 | 41.09884 | -111.82578 | 16327 ft | 398 kts | 122° |
| 2026-05-08 04:34 | 41.08349 | -111.79453 | 16681 ft | 408 kts | 122° |
| 2026-05-08 04:35 | 41.06869 | -111.76235 | 17304 ft | 411 kts | 120° |
| 2026-05-08 04:35 | 41.05416 | -111.72953 | 17983 ft | 413 kts | 118° |
| 2026-05-08 04:35 | 41.03974 | -111.69627 | 18483 ft | 420 kts | 118° |
| 2026-05-08 04:35 | 41.02512 | -111.66263 | 19064 ft | 422 kts | 118° |
| 2026-05-08 04:36 | 41.01043 | -111.62902 | 19721 ft | 422 kts | 118° |
| 2026-05-08 04:36 | 40.99563 | -111.59530 | 20331 ft | 425 kts | 118° |
| 2026-05-08 04:36 | 40.98069 | -111.56132 | 20859 ft | 428 kts | 118° |
| 2026-05-08 04:36 | 40.96562 | -111.52725 | 21449 ft | 430 kts | 118° |
| 2026-05-08 04:37 | 40.95077 | -111.49351 | 22081 ft | 430 kts | 117° |
| 2026-05-08 04:37 | 40.93569 | -111.45934 | 22698 ft | 431 kts | 117° |
| 2026-05-08 04:37 | 40.92071 | -111.42476 | 23244 ft | 433 kts | 114° |
| 2026-05-08 04:37 | 40.90918 | -111.38807 | 23726 ft | 432 kts | 104° |
| 2026-05-08 04:38 | 40.90236 | -111.34955 | 24131 ft | 431 kts | 95° |
| 2026-05-08 04:38 | 40.89778 | -111.31023 | 24531 ft | 435 kts | 94° |
| 2026-05-08 04:38 | 40.89342 | -111.27054 | 24928 ft | 438 kts | 94° |
| 2026-05-08 04:38 | 40.88902 | -111.23043 | 25334 ft | 442 kts | 94° |
| 2026-05-08 04:39 | 40.88449 | -111.19016 | 25720 ft | 446 kts | 94° |
| 2026-05-08 04:39 | 40.87982 | -111.14953 | 26119 ft | 449 kts | 94° |
| 2026-05-08 04:39 | 40.87500 | -111.10857 | 26535 ft | 453 kts | 94° |
| 2026-05-08 04:39 | 40.87010 | -111.06740 | 26998 ft | 454 kts | 94° |
| 2026-05-08 04:40 | 40.86514 | -111.02627 | 27571 ft | 452 kts | 93° |
| 2026-05-08 04:40 | 40.86027 | -110.98592 | 27919 ft | 457 kts | 93° |
| 2026-05-08 04:40 | 40.85522 | -110.94399 | 28051 ft | 466 kts | 93° |
| 2026-05-08 04:40 | 40.85007 | -110.90138 | 28236 ft | 473 kts | 93° |
| 2026-05-08 04:41 | 40.84491 | -110.85880 | 28458 ft | 479 kts | 94° |
| 2026-05-08 04:41 | 40.83957 | -110.81509 | 28638 ft | 485 kts | 94° |
| 2026-05-08 04:41 | 40.83418 | -110.77099 | 28977 ft | 487 kts | 93° |
| 2026-05-08 04:41 | 40.82872 | -110.72681 | 29493 ft | 485 kts | 93° |
| 2026-05-08 04:42 | 40.82328 | -110.68291 | 29981 ft | 484 kts | 92° |
| 2026-05-08 04:42 | 40.81783 | -110.63909 | 30378 ft | 483 kts | 92° |
| 2026-05-08 04:42 | 40.81238 | -110.59523 | 30732 ft | 484 kts | 92° |
| 2026-05-08 04:42 | 40.80699 | -110.55181 | 31034 ft | 484 kts | 92° |
| 2026-05-08 04:43 | 40.79592 | -110.46300 | 31084 ft | 496 kts | 93° |
| 2026-05-08 04:43 | 40.78447 | -110.37194 | 31050 ft | 507 kts | 93° |
| 2026-05-08 04:44 | 40.77277 | -110.27977 | 31041 ft | 510 kts | 94° |
| 2026-05-08 04:44 | 40.76094 | -110.18734 | 31037 ft | 511 kts | 94° |
| 2026-05-08 04:45 | 40.74918 | -110.09544 | 31058 ft | 511 kts | 94° |
| 2026-05-08 04:45 | 40.73725 | -110.00304 | 31031 ft | 510 kts | 94° |
| 2026-05-08 04:46 | 40.72542 | -109.91161 | 31016 ft | 508 kts | 94° |
| 2026-05-08 04:46 | 40.71352 | -109.81971 | 31027 ft | 508 kts | 94° |
| 2026-05-08 04:47 | 40.70162 | -109.72807 | 31013 ft | 507 kts | 94° |
| 2026-05-08 04:47 | 40.68972 | -109.63698 | 31014 ft | 506 kts | 94° |
| 2026-05-08 04:48 | 40.67799 | -109.54557 | 31032 ft | 505 kts | 91° |
| 2026-05-08 04:48 | 40.67532 | -109.45424 | 31058 ft | 496 kts | 83° |
| 2026-05-08 04:49 | 40.67588 | -109.36306 | 31018 ft | 497 kts | 83° |
| 2026-05-08 04:49 | 40.67557 | -109.27166 | 31006 ft | 498 kts | 84° |
| 2026-05-08 04:50 | 40.67452 | -109.18088 | 30980 ft | 499 kts | 84° |
| 2026-05-08 04:50 | 40.67338 | -109.08933 | 30992 ft | 499 kts | 84° |
| 2026-05-08 04:51 | 40.67108 | -108.99806 | 30968 ft | 503 kts | 87° |
| 2026-05-08 04:51 | 40.66492 | -108.90622 | 30952 ft | 504 kts | 89° |
| 2026-05-08 04:52 | 40.65817 | -108.81473 | 30955 ft | 504 kts | 89° |
| 2026-05-08 04:52 | 40.65183 | -108.72276 | 30951 ft | 505 kts | 89° |
| 2026-05-08 04:53 | 40.64673 | -108.64613 | 30947 ft | 505 kts | 88° |
| 2026-05-08 04:53 | 40.64061 | -108.55391 | 30948 ft | 506 kts | 89° |
| 2026-05-08 04:54 | 40.63438 | -108.46161 | 30941 ft | 506 kts | 89° |
| 2026-05-08 04:54 | 40.62805 | -108.36930 | 30956 ft | 505 kts | 88° |
| 2026-05-08 04:55 | 40.62165 | -108.27717 | 30953 ft | 504 kts | 89° |
| 2026-05-08 04:55 | 40.61519 | -108.18536 | 30938 ft | 503 kts | 89° |
| 2026-05-08 04:56 | 40.60874 | -108.09446 | 30953 ft | 502 kts | 89° |
| 2026-05-08 04:56 | 40.60216 | -108.00273 | 30957 ft | 501 kts | 89° |
| 2026-05-08 04:57 | 40.59559 | -107.91219 | 30967 ft | 501 kts | 89° |
| 2026-05-08 04:57 | 40.58892 | -107.82134 | 30960 ft | 501 kts | 89° |
| 2026-05-08 04:58 | 40.58217 | -107.73014 | 31089 ft | 501 kts | 89° |
| 2026-05-08 04:58 | 40.57531 | -107.63862 | 31102 ft | 502 kts | 89° |
| 2026-05-08 04:59 | 40.56844 | -107.54723 | 31116 ft | 502 kts | 89° |
| 2026-05-08 04:59 | 40.56156 | -107.45633 | 31116 ft | 503 kts | 89° |
| 2026-05-08 05:00 | 40.55454 | -107.36476 | 31108 ft | 504 kts | 88° |
| 2026-05-08 05:00 | 40.54743 | -107.27269 | 31130 ft | 507 kts | 88° |
| 2026-05-08 05:01 | 40.54019 | -107.18022 | 31131 ft | 508 kts | 89° |
| 2026-05-08 05:01 | 40.53287 | -107.08777 | 31120 ft | 508 kts | 89° |
| 2026-05-08 05:02 | 40.52554 | -106.99600 | 31102 ft | 510 kts | 89° |
| 2026-05-08 05:02 | 40.51806 | -106.90350 | 31051 ft | 511 kts | 89° |
| 2026-05-08 05:03 | 40.51050 | -106.81076 | 31120 ft | 511 kts | 89° |
| 2026-05-08 05:03 | 40.50287 | -106.71776 | 31111 ft | 510 kts | 89° |
| 2026-05-08 05:04 | 40.49514 | -106.62502 | 31091 ft | 511 kts | 90° |
| 2026-05-08 05:04 | 40.49126 | -106.57862 | 30952 ft | 509 kts | 90° |
| 2026-05-08 05:04 | 40.48739 | -106.53298 | 30676 ft | 496 kts | 90° |
| 2026-05-08 05:05 | 40.48349 | -106.48822 | 30215 ft | 490 kts | 90° |
| 2026-05-08 05:05 | 40.47958 | -106.44450 | 29646 ft | 486 kts | 90° |
| 2026-05-08 05:05 | 40.47556 | -106.40004 | 29029 ft | 482 kts | 90° |
| 2026-05-08 05:05 | 40.47166 | -106.35693 | 28448 ft | 479 kts | 91° |
| 2026-05-08 05:06 | 40.46774 | -106.31356 | 27896 ft | 476 kts | 92° |
| 2026-05-08 05:06 | 40.46384 | -106.27060 | 27331 ft | 472 kts | 92° |
| 2026-05-08 05:06 | 40.45996 | -106.22785 | 26769 ft | 469 kts | 92° |
| 2026-05-08 05:06 | 40.45609 | -106.18541 | 26227 ft | 466 kts | 92° |
| 2026-05-08 05:07 | 40.45225 | -106.14338 | 25691 ft | 462 kts | 93° |
| 2026-05-08 05:07 | 40.44855 | -106.10155 | 25158 ft | 459 kts | 93° |
| 2026-05-08 05:07 | 40.44496 | -106.06009 | 24654 ft | 456 kts | 93° |
| 2026-05-08 05:07 | 40.44140 | -106.01884 | 24143 ft | 453 kts | 93° |
| 2026-05-08 05:08 | 40.43792 | -105.97882 | 23661 ft | 450 kts | 94° |
| 2026-05-08 05:08 | 40.43434 | -105.93815 | 23072 ft | 447 kts | 94° |
| 2026-05-08 05:08 | 40.43052 | -105.89780 | 22496 ft | 445 kts | 97° |
| 2026-05-08 05:08 | 40.42497 | -105.85792 | 21912 ft | 443 kts | 100° |
| 2026-05-08 05:09 | 40.41845 | -105.81849 | 21355 ft | 441 kts | 101° |
| 2026-05-08 05:09 | 40.41176 | -105.77927 | 20777 ft | 439 kts | 101° |
| 2026-05-08 05:09 | 40.40525 | -105.74034 | 20227 ft | 436 kts | 101° |
| 2026-05-08 05:09 | 40.39904 | -105.70200 | 19712 ft | 433 kts | 100° |
| 2026-05-08 05:10 | 40.39288 | -105.66333 | 19149 ft | 430 kts | 100° |
| 2026-05-08 05:10 | 40.38076 | -105.58709 | 18101 ft | 423 kts | 100° |
| 2026-05-08 05:10 | 40.37473 | -105.54941 | 17510 ft | 421 kts | 100° |
| 2026-05-08 05:11 | 40.36873 | -105.51196 | 16951 ft | 418 kts | 100° |
| 2026-05-08 05:11 | 40.36276 | -105.47481 | 16377 ft | 415 kts | 100° |
| 2026-05-08 05:11 | 40.35682 | -105.43788 | 15832 ft | 413 kts | 100° |
| 2026-05-08 05:11 | 40.35092 | -105.40135 | 15519 ft | 405 kts | 100° |
| 2026-05-08 05:12 | 40.34349 | -105.36611 | 15202 ft | 399 kts | 113° |
| 2026-05-08 05:12 | 40.32854 | -105.33598 | 14934 ft | 391 kts | 129° |
| 2026-05-08 05:12 | 40.30989 | -105.31076 | 14598 ft | 381 kts | 141° |
| 2026-05-08 05:12 | 40.29234 | -105.28522 | 14342 ft | 376 kts | 123° |
| 2026-05-08 05:13 | 40.27859 | -105.25653 | 14091 ft | 370 kts | 123° |
| 2026-05-08 05:13 | 40.26391 | -105.22900 | 13810 ft | 365 kts | 127° |
| 2026-05-08 05:13 | 40.24869 | -105.20262 | 13511 ft | 362 kts | 128° |
| 2026-05-08 05:13 | 40.23326 | -105.17674 | 13204 ft | 358 kts | 129° |
| 2026-05-08 05:14 | 40.21795 | -105.15121 | 13048 ft | 358 kts | 128° |
| 2026-05-08 05:14 | 40.20253 | -105.12542 | 13026 ft | 359 kts | 128° |
| 2026-05-08 05:14 | 40.18744 | -105.10010 | 13013 ft | 356 kts | 128° |
| 2026-05-08 05:14 | 40.17224 | -105.07457 | 13012 ft | 356 kts | 128° |
| 2026-05-08 05:15 | 40.15700 | -105.04893 | 13010 ft | 356 kts | 128° |
| 2026-05-08 05:15 | 40.14167 | -105.02341 | 12997 ft | 356 kts | 130° |
| 2026-05-08 05:15 | 40.12475 | -104.99990 | 13004 ft | 355 kts | 136° |
| 2026-05-08 05:15 | 40.10744 | -104.97828 | 12880 ft | 347 kts | 138° |
| 2026-05-08 05:16 | 40.09012 | -104.95692 | 12864 ft | 336 kts | 137° |
| 2026-05-08 05:16 | 40.07344 | -104.93598 | 12899 ft | 328 kts | 137° |
| 2026-05-08 05:16 | 40.05721 | -104.91528 | 12929 ft | 326 kts | 137° |
| 2026-05-08 05:16 | 40.04100 | -104.89448 | 12946 ft | 328 kts | 137° |
| 2026-05-08 05:17 | 40.02493 | -104.87382 | 12948 ft | 328 kts | 136° |
| 2026-05-08 05:17 | 40.00867 | -104.85291 | 12963 ft | 329 kts | 136° |
| 2026-05-08 05:17 | 39.99241 | -104.83202 | 12971 ft | 329 kts | 136° |
| 2026-05-08 05:17 | 39.97480 | -104.81317 | 12950 ft | 326 kts | 155° |
| 2026-05-08 05:18 | 39.95352 | -104.80453 | 12975 ft | 318 kts | 178° |
| 2026-05-08 05:18 | 39.93153 | -104.80416 | 12966 ft | 317 kts | 185° |
| 2026-05-08 05:18 | 39.90935 | -104.80501 | 12690 ft | 320 kts | 185° |
| 2026-05-08 05:18 | 39.88728 | -104.80595 | 12354 ft | 314 kts | 185° |
| 2026-05-08 05:19 | 39.86570 | -104.80674 | 11991 ft | 306 kts | 185° |
| 2026-05-08 05:19 | 39.84461 | -104.80740 | 11639 ft | 300 kts | 184° |
| 2026-05-08 05:19 | 39.82394 | -104.80798 | 11287 ft | 294 kts | 184° |
| 2026-05-08 05:19 | 39.80374 | -104.80852 | 10942 ft | 288 kts | 184° |
| 2026-05-08 05:20 | 39.78388 | -104.80909 | 10610 ft | 283 kts | 185° |
| 2026-05-08 05:20 | 39.76440 | -104.81028 | 10275 ft | 277 kts | 186° |
| 2026-05-08 05:20 | 39.74530 | -104.81176 | 9944 ft | 273 kts | 186° |
| 2026-05-08 05:20 | 39.72642 | -104.81321 | 9581 ft | 269 kts | 185° |
| 2026-05-08 05:21 | 39.70805 | -104.81397 | 9231 ft | 266 kts | 184° |
| 2026-05-08 05:21 | 39.68985 | -104.81453 | 9043 ft | 255 kts | 184° |
| 2026-05-08 05:21 | 39.67254 | -104.81499 | 8991 ft | 243 kts | 184° |
| 2026-05-08 05:21 | 39.65577 | -104.81503 | 8997 ft | 242 kts | 176° |
| 2026-05-08 05:22 | 39.63955 | -104.80780 | 8713 ft | 257 kts | 146° |
| 2026-05-08 05:22 | 39.62759 | -104.79040 | 8386 ft | 263 kts | 116° |
| 2026-05-08 05:22 | 39.62338 | -104.76757 | 8086 ft | 258 kts | 91° |
| 2026-05-08 05:22 | 39.62383 | -104.74508 | 8020 ft | 241 kts | 79° |
| 2026-05-08 05:23 | 39.63038 | -104.72643 | 7993 ft | 218 kts | 44° |
| 2026-05-08 05:23 | 39.64218 | -104.71528 | 8011 ft | 208 kts | 28° |
| 2026-05-08 05:23 | 39.65477 | -104.70580 | 8002 ft | 209 kts | 27° |
| 2026-05-08 05:23 | 39.66733 | -104.69629 | 7991 ft | 208 kts | 27° |
| 2026-05-08 05:24 | 39.68060 | -104.68966 | 7986 ft | 202 kts | 359° |
| 2026-05-08 05:24 | 39.69472 | -104.68966 | 7848 ft | 208 kts | 358° |
| 2026-05-08 05:24 | 39.70908 | -104.68921 | 7653 ft | 201 kts | 360° |
| 2026-05-08 05:24 | 39.72274 | -104.68884 | 7426 ft | 200 kts | 359° |
| 2026-05-08 05:25 | 39.73651 | -104.68867 | 7153 ft | 196 kts | 357° |
| 2026-05-08 05:25 | 39.74997 | -104.68865 | 7077 ft | 195 kts | 359° |
| 2026-05-08 05:25 | 39.76343 | -104.68834 | 7031 ft | 190 kts | 358° |
| 2026-05-08 05:25 | 39.77657 | -104.68820 | 7002 ft | 189 kts | 359° |
| 2026-05-08 05:26 | 39.78977 | -104.68805 | 6838 ft | 188 kts | 359° |
| 2026-05-08 05:26 | 39.80242 | -104.68788 | 6625 ft | 177 kts | 358° |
| 2026-05-08 05:26 | 39.81450 | -104.68777 | 6388 ft | 171 kts | 360° |
| 2026-05-08 05:26 | 39.82620 | -104.68763 | 6142 ft | 166 kts | 2° |
| 2026-05-08 05:27 | 39.83763 | -104.68749 | 5930 ft | 162 kts | 3° |
| 2026-05-08 05:27 | 39.84909 | -104.68730 | 5729 ft | 167 kts | 4° |
| 2026-05-08 05:27 | 39.86064 | -104.68735 | 5497 ft | 163 kts | 5° |
| 2026-05-08 05:27 | 39.87146 | -104.68718 | 5383 ft | 148 kts | 4° |
| 2026-05-08 05:28 | 39.88088 | -104.68705 | 5375 ft | 124 kts | 358° |
| 2026-05-08 05:28 | 39.88740 | -104.68667 | 5362 ft | 52 kts | 12° |
| 2026-05-08 05:28 | 39.88891 | -104.68571 | 5362 ft | 3 kts | 45° |
| 2026-05-08 05:28 | 39.88892 | -104.68501 | 5363 ft | 10 kts | 129° |
| 2026-05-08 05:29 | 39.88831 | -104.68481 | 5363 ft | 9 kts | 177° |
| 2026-05-08 05:29 | 39.88767 | -104.68478 | 5363 ft | 10 kts | 179° |
| 2026-05-08 05:29 | 39.88676 | -104.68478 | 5364 ft | 16 kts | 181° |
| 2026-05-08 05:29 | 39.88549 | -104.68483 | 5363 ft | 21 kts | 180° |
| 2026-05-08 05:30 | 39.88389 | -104.68479 | 5367 ft | 25 kts | 181° |
| 2026-05-08 05:30 | 39.88222 | -104.68488 | 5371 ft | 24 kts | 182° |
| 2026-05-08 05:30 | 39.88061 | -104.68486 | 5373 ft | 23 kts | 179° |
| 2026-05-08 05:30 | 39.87908 | -104.68489 | 5379 ft | 22 kts | 181° |
| 2026-05-08 05:31 | 39.87757 | -104.68493 | 5377 ft | 21 kts | 181° |
| 2026-05-08 05:31 | 39.87611 | -104.68496 | 5379 ft | 21 kts | 180° |
| 2026-05-08 05:31 | 39.87469 | -104.68500 | 5381 ft | 20 kts | 181° |
| 2026-05-08 05:31 | 39.87332 | -104.68496 | 5376 ft | 19 kts | 179° |
| 2026-05-08 05:32 | 39.87199 | -104.68495 | 5379 ft | 19 kts | 180° |
| 2026-05-08 05:32 | 39.87041 | -104.68499 | 5383 ft | 24 kts | 181° |
| 2026-05-08 05:32 | 39.86879 | -104.68500 | 5386 ft | 23 kts | 179° |
| 2026-05-08 05:32 | 39.86723 | -104.68500 | 5393 ft | 22 kts | 181° |
| 2026-05-08 05:33 | 39.86572 | -104.68507 | 5387 ft | 21 kts | 182° |
| 2026-05-08 05:33 | 39.86429 | -104.68492 | 5398 ft | 21 kts | 130° |
| 2026-05-08 05:33 | 39.86421 | -104.68301 | 5391 ft | 22 kts | 86° |
| 2026-05-08 05:33 | 39.86478 | -104.68111 | 5383 ft | 23 kts | 72° |
| 2026-05-08 05:34 | 39.86481 | -104.67910 | 5378 ft | 17 kts | 92° |
| 2026-05-08 05:34 | 39.86430 | -104.67824 | 5373 ft | 10 kts | 144° |
| 2026-05-08 05:34 | 39.86377 | -104.67785 | 5376 ft | 3 kts | 176° |
| 2026-05-08 05:34 | 39.86359 | -104.67785 | 5376 ft | 0 kts | 180° |
| 2026-05-08 05:35 | 39.86358 | -104.67785 | 5376 ft | 2 kts | 184° |
| 2026-05-08 05:35 | 39.86357 | -104.67785 | 5375 ft | 0 kts | 183° |